Terminal Aerodrome Forecast
Issued by NWS

Home | Current Version | Previous Version | Text Only | Print | Product List | Glossary On
Versions: 1 2 3 4 5 6 7 8 9 10 11 12 13 14
000
FTUS42 TJSJ 210500 RRA
TAFKPK
TAF
TKPK 210544Z 2106/2206 04010KT P6SM VCSH SCT020
     FM211100 06015KT P6SM VCTS SCT020CB
      AMD NOT SKED TIL 211100=

USA.gov is the U.S. government's official web portal to all federal, state and local government web resources and services.